createdAt,value
2023-03-15T00:02:10.549Z,4.97
2023-03-15T00:04:41.992Z,5.55
2023-03-15T00:07:13.394Z,4.75
2023-03-15T00:09:44.801Z,7.05
2023-03-15T00:12:16.297Z,6.13
2023-03-15T00:14:47.715Z,7.28
2023-03-15T00:17:19.225Z,4.10
2023-03-15T00:19:50.762Z,3.00
2023-03-15T00:22:22.181Z,3.15
2023-03-15T00:24:53.632Z,3.85
2023-03-15T00:27:25.050Z,3.08
2023-03-15T00:29:56.499Z,3.35
2023-03-15T00:32:28.019Z,5.40
2023-03-15T00:34:59.471Z,5.85
2023-03-15T00:37:31.600Z,2.40
2023-03-15T00:40:03.098Z,4.18
2023-03-15T00:42:34.526Z,3.90
2023-03-15T00:45:07.275Z,4.40
2023-03-15T00:47:38.732Z,3.05
2023-03-15T00:50:10.791Z,2.45
2023-03-15T00:52:42.305Z,2.77
2023-03-15T00:55:17.180Z,3.72
2023-03-15T00:57:48.946Z,3.20
2023-03-15T01:00:22.592Z,2.42
2023-03-15T01:02:54.684Z,3.08
2023-03-15T01:05:26.674Z,5.03
2023-03-15T01:07:58.138Z,3.65
2023-03-15T01:10:29.662Z,4.60
2023-03-15T01:13:01.116Z,2.15
2023-03-15T01:15:32.993Z,2.10
2023-03-15T01:18:04.466Z,3.22
2023-03-15T01:20:35.959Z,1.88
2023-03-15T01:23:07.432Z,4.55
2023-03-15T01:25:38.876Z,3.85
2023-03-15T01:28:10.330Z,2.35
2023-03-15T01:30:49.854Z,2.93
2023-03-15T01:33:22.461Z,4.30
2023-03-15T01:36:01.936Z,2.67
2023-03-15T01:38:34.030Z,3.03
2023-03-15T01:41:05.552Z,4.47
2023-03-15T01:43:36.984Z,4.75
2023-03-15T01:46:17.401Z,3.90
2023-03-15T01:49:01.350Z,3.13
2023-03-15T01:51:57.948Z,1.92
2023-03-15T01:54:33.155Z,4.35
2023-03-15T01:57:08.784Z,3.40
2023-03-15T01:59:46.103Z,4.88
2023-03-15T02:02:19.158Z,5.70
2023-03-15T02:05:00.262Z,5.28
2023-03-15T02:07:31.736Z,2.85
2023-03-15T02:10:10.139Z,5.00
2023-03-15T02:12:48.146Z,5.20
2023-03-15T02:15:19.921Z,4.50
2023-03-15T02:17:51.630Z,5.35
2023-03-15T02:20:51.349Z,4.32
2023-03-15T02:23:23.984Z,3.42
2023-03-15T02:26:19.487Z,4.03
2023-03-15T02:28:52.782Z,3.08
2023-03-15T02:31:24.453Z,5.47
2023-03-15T02:33:56.027Z,4.72
2023-03-15T02:36:29.868Z,4.45
2023-03-15T02:39:02.001Z,3.25
2023-03-15T02:41:43.665Z,3.90
2023-03-15T02:44:21.493Z,5.43
2023-03-15T02:46:57.167Z,5.50
2023-03-15T02:49:32.898Z,4.25
2023-03-15T02:52:04.679Z,3.67
2023-03-15T02:54:36.102Z,4.95
2023-03-15T02:57:07.625Z,4.83
2023-03-15T02:59:39.538Z,9.85
2023-03-15T03:02:11.719Z,3.10
2023-03-15T03:04:43.206Z,4.53
2023-03-15T03:07:14.936Z,3.90
2023-03-15T03:09:46.344Z,5.70
2023-03-15T03:12:17.762Z,2.90
2023-03-15T03:14:49.912Z,4.40
2023-03-15T03:17:21.328Z,4.53
2023-03-15T03:19:52.740Z,3.80
2023-03-15T03:22:24.176Z,3.90
2023-03-15T03:24:55.656Z,4.28
2023-03-15T03:27:27.083Z,3.13
2023-03-15T03:29:59.434Z,2.35
2023-03-15T03:32:30.909Z,2.90
2023-03-15T03:35:02.928Z,3.42
2023-03-15T03:37:34.449Z,2.95
2023-03-15T03:40:06.511Z,1.40
2023-03-15T03:42:37.909Z,3.13
2023-03-15T03:45:09.781Z,2.40
2023-03-15T03:47:41.519Z,2.08
2023-03-15T03:50:12.976Z,2.20
2023-03-15T03:52:44.397Z,4.10
2023-03-15T03:55:15.830Z,2.90
2023-03-15T03:57:47.272Z,1.23
2023-03-15T04:00:19.461Z,2.83
2023-03-15T04:02:50.979Z,1.70
2023-03-15T04:05:22.557Z,3.33
2023-03-15T04:07:54.249Z,1.52
2023-03-15T04:10:25.919Z,2.40
2023-03-15T04:12:57.562Z,4.37
2023-03-15T04:15:29.088Z,3.58
2023-03-15T04:18:00.550Z,5.10
2023-03-15T04:20:32.030Z,5.20
2023-03-15T04:23:03.518Z,7.45
2023-03-15T04:25:34.944Z,5.80
2023-03-15T04:28:06.367Z,5.97
2023-03-15T04:30:37.865Z,8.57
2023-03-15T04:33:10.065Z,6.88
2023-03-15T04:35:41.554Z,5.38
2023-03-15T04:38:13.016Z,3.67
2023-03-15T04:40:45.001Z,4.35
2023-03-15T04:43:16.427Z,5.03
2023-03-15T04:45:47.869Z,4.90
2023-03-15T04:48:19.304Z,3.83
2023-03-15T04:50:50.703Z,3.90
2023-03-15T04:53:22.186Z,3.20
2023-03-15T04:55:53.731Z,4.60
2023-03-15T04:58:25.197Z,5.47
2023-03-15T05:00:56.730Z,4.95
2023-03-15T05:03:28.172Z,6.07
2023-03-15T05:06:02.127Z,7.13
2023-03-15T05:08:37.141Z,4.15
2023-03-15T05:11:12.036Z,6.53
2023-03-15T05:13:44.113Z,2.95
2023-03-15T05:16:15.619Z,3.77
2023-03-15T05:18:47.105Z,5.25
2023-03-15T05:21:18.516Z,4.80
2023-03-15T05:23:49.999Z,4.40
2023-03-15T05:26:21.492Z,4.47
2023-03-15T05:28:52.978Z,4.30
2023-03-15T05:31:24.523Z,6.03
2023-03-15T05:33:55.956Z,3.72
2023-03-15T05:36:27.405Z,2.70
2023-03-15T05:38:59.064Z,7.15
2023-03-15T05:41:31.289Z,4.60
2023-03-15T05:44:03.276Z,4.75
2023-03-15T05:46:34.695Z,4.95
2023-03-15T05:49:06.163Z,3.83
2023-03-15T05:51:37.560Z,9.68
2023-03-15T05:54:09.046Z,10.43
2023-03-15T05:56:40.522Z,11.20
2023-03-15T05:59:11.967Z,8.40
2023-03-15T06:01:43.397Z,10.85
2023-03-15T06:04:14.855Z,8.00
2023-03-15T06:06:46.481Z,9.30
2023-03-15T06:09:17.889Z,5.63
2023-03-15T06:11:49.388Z,7.20
2023-03-15T06:14:20.795Z,6.20
2023-03-15T06:16:53.037Z,4.22
2023-03-15T06:19:24.521Z,6.40
2023-03-15T06:21:56.310Z,8.43
2023-03-15T06:24:27.764Z,7.00
2023-03-15T06:26:59.223Z,6.25
2023-03-15T06:29:31.026Z,5.28
2023-03-15T06:32:02.954Z,8.95
2023-03-15T06:34:34.401Z,6.70
2023-03-15T06:37:05.910Z,4.18
2023-03-15T06:39:37.367Z,5.90
2023-03-15T06:42:09.312Z,7.97
2023-03-15T06:44:41.286Z,6.75
2023-03-15T06:47:12.801Z,7.00
2023-03-15T06:49:44.311Z,6.35
2023-03-15T06:52:16.384Z,9.98
2023-03-15T06:54:47.827Z,5.47
2023-03-15T06:57:19.440Z,6.80
2023-03-15T06:59:51.057Z,7.20
2023-03-15T07:02:23.029Z,9.63
2023-03-15T07:04:54.558Z,7.07
2023-03-15T07:07:25.958Z,5.88
2023-03-15T07:09:57.471Z,11.38
2023-03-15T07:12:28.882Z,7.53
2023-03-15T07:15:00.301Z,8.05
2023-03-15T07:17:31.718Z,9.68
2023-03-15T07:20:03.936Z,10.65
2023-03-15T07:22:35.395Z,10.00
2023-03-15T07:25:07.150Z,10.65
2023-03-15T07:27:38.586Z,9.82
2023-03-15T07:30:10.639Z,5.15
2023-03-15T07:32:42.213Z,7.72
2023-03-15T07:35:14.109Z,7.40
2023-03-15T07:37:46.749Z,7.95
2023-03-15T07:40:18.384Z,9.73
2023-03-15T07:42:49.947Z,10.02
2023-03-15T07:45:21.419Z,9.90
2023-03-15T07:47:55.496Z,8.05
2023-03-15T07:50:29.058Z,7.47
2023-03-15T07:53:00.656Z,8.60
2023-03-15T07:55:33.093Z,10.67
2023-03-15T07:58:04.596Z,8.80
2023-03-15T08:00:36.021Z,8.30
2023-03-15T08:03:07.681Z,7.78
2023-03-15T08:05:39.229Z,10.30
2023-03-15T08:08:10.693Z,9.80
2023-03-15T08:10:43.745Z,9.73
2023-03-15T08:13:15.235Z,7.40
2023-03-15T08:15:46.709Z,9.05
2023-03-15T08:18:18.182Z,7.78
2023-03-15T08:20:50.257Z,5.15
2023-03-15T08:23:21.756Z,10.63
2023-03-15T08:25:53.177Z,8.02
2023-03-15T08:28:24.714Z,5.63
2023-03-15T08:30:56.166Z,7.57
2023-03-15T08:33:27.585Z,7.65
2023-03-15T08:35:59.071Z,5.28
2023-03-15T08:38:30.519Z,7.28
2023-03-15T08:41:02.048Z,6.90
2023-03-15T08:43:33.463Z,7.13
2023-03-15T08:46:05.076Z,8.55
2023-03-15T08:48:36.737Z,7.95
2023-03-15T08:51:08.182Z,10.77
2023-03-15T08:53:39.681Z,5.82
2023-03-15T08:56:11.450Z,7.20
2023-03-15T08:58:42.910Z,4.65
2023-03-15T09:01:15.189Z,5.72
2023-03-15T09:03:46.792Z,6.57
2023-03-15T09:06:18.199Z,5.53
2023-03-15T09:08:49.713Z,7.65
2023-03-15T09:11:22.306Z,4.20
2023-03-15T09:13:54.344Z,8.32
2023-03-15T09:16:25.914Z,8.40
2023-03-15T09:18:57.434Z,6.10
2023-03-15T09:21:28.880Z,6.15
2023-03-15T09:24:00.336Z,5.90
2023-03-15T09:26:31.804Z,7.25
2023-03-15T09:29:03.314Z,6.60
2023-03-15T09:31:35.243Z,6.30
2023-03-15T09:34:06.796Z,6.32
2023-03-15T09:36:38.273Z,5.05
2023-03-15T09:39:09.734Z,7.28
2023-03-15T09:41:44.733Z,4.68
2023-03-15T09:44:39.387Z,4.30
2023-03-15T09:47:29.243Z,4.38
2023-03-15T09:50:24.922Z,6.17
2023-03-15T09:53:03.984Z,5.18
2023-03-15T09:55:42.398Z,5.55
2023-03-15T09:58:18.161Z,7.27
2023-03-15T10:00:53.300Z,4.85
2023-03-15T10:03:48.610Z,4.00
2023-03-15T10:06:30.805Z,5.22
2023-03-15T10:09:10.911Z,6.80
2023-03-15T10:11:56.636Z,6.38
2023-03-15T10:14:45.060Z,4.95
2023-03-15T10:17:31.735Z,6.60
2023-03-15T10:20:09.424Z,6.18
2023-03-15T10:22:49.318Z,6.03
2023-03-15T10:25:27.822Z,3.90
2023-03-15T10:28:02.516Z,6.28
2023-03-15T10:30:36.233Z,6.82
2023-03-15T10:33:19.830Z,5.75
2023-03-15T10:35:56.138Z,5.10
2023-03-15T10:38:30.050Z,4.03
2023-03-15T10:41:05.102Z,5.80
2023-03-15T10:43:36.636Z,5.18
2023-03-15T10:46:23.051Z,3.15
2023-03-15T10:49:00.578Z,4.25
2023-03-15T10:51:37.514Z,4.72
2023-03-15T10:54:18.500Z,3.33
2023-03-15T10:56:57.557Z,4.95
2023-03-15T10:59:32.242Z,4.80
2023-03-15T11:02:12.892Z,3.63
2023-03-15T11:05:15.160Z,4.55
2023-03-15T11:07:55.210Z,3.83
2023-03-15T11:10:33.391Z,5.05
2023-03-15T11:13:28.044Z,5.55
2023-03-15T11:16:05.329Z,6.25
2023-03-15T11:18:50.850Z,6.07
2023-03-15T11:21:27.906Z,7.00
2023-03-15T11:24:01.815Z,8.48
2023-03-15T11:26:36.340Z,7.93
2023-03-15T11:29:19.585Z,4.72
2023-03-15T11:31:52.126Z,4.88
2023-03-15T11:34:46.680Z,6.25
2023-03-15T11:37:25.402Z,5.80
2023-03-15T11:40:12.527Z,5.32
2023-03-15T11:43:04.550Z,5.63
2023-03-15T11:45:39.823Z,6.88
2023-03-15T11:48:16.623Z,5.88
2023-03-15T11:50:48.111Z,4.40
2023-03-15T11:53:21.548Z,5.57
2023-03-15T11:55:53.119Z,6.55
2023-03-15T11:58:32.229Z,6.97
2023-03-15T12:01:06.035Z,4.57
2023-03-15T12:03:43.251Z,2.97
2023-03-15T12:06:17.780Z,4.30
2023-03-15T12:08:52.378Z,6.93
2023-03-15T12:11:23.806Z,3.63
2023-03-15T12:13:58.367Z,5.03
2023-03-15T12:16:32.719Z,4.78
2023-03-15T12:19:15.119Z,4.47
2023-03-15T12:21:52.003Z,3.50
2023-03-15T12:24:27.376Z,3.97
2023-03-15T12:27:00.967Z,2.97
2023-03-15T12:29:35.522Z,4.85
2023-03-15T12:32:17.413Z,4.47
2023-03-15T12:34:52.575Z,6.38
2023-03-15T12:37:51.836Z,5.78
2023-03-15T12:40:39.168Z,3.07
2023-03-15T12:43:12.426Z,3.70
2023-03-15T12:45:45.081Z,2.45
2023-03-15T12:48:21.505Z,2.97
2023-03-15T12:50:55.857Z,4.25
2023-03-15T12:53:33.463Z,3.63
2023-03-15T12:56:40.701Z,3.75
2023-03-15T12:59:24.356Z,2.80
2023-03-15T13:01:58.260Z,4.70
2023-03-15T13:04:31.294Z,6.05
2023-03-15T13:07:17.748Z,3.80
2023-03-15T13:10:20.029Z,3.10
2023-03-15T13:13:01.504Z,3.27
2023-03-15T13:16:05.389Z,4.32
2023-03-15T13:18:47.133Z,2.95
2023-03-15T13:21:24.564Z,2.78
2023-03-15T13:23:58.544Z,3.23
2023-03-15T13:26:48.997Z,3.00
2023-03-15T13:29:29.020Z,4.10
2023-03-15T13:32:22.297Z,3.67
2023-03-15T13:34:56.609Z,4.68
2023-03-15T13:37:28.058Z,3.15
2023-03-15T13:40:06.081Z,3.22
2023-03-15T13:42:40.466Z,3.72
2023-03-15T13:45:16.746Z,2.10
2023-03-15T13:47:48.164Z,3.08
2023-03-15T13:50:21.004Z,3.88
2023-03-15T13:52:52.572Z,2.88
2023-03-15T13:55:24.178Z,3.10
2023-03-15T13:57:59.536Z,2.53
2023-03-15T14:00:32.454Z,2.20
2023-03-15T14:03:13.369Z,3.13
2023-03-15T14:05:51.188Z,4.13
2023-03-15T14:08:38.892Z,2.95
2023-03-15T14:11:19.694Z,2.92
2023-03-15T14:13:56.057Z,2.92
2023-03-15T14:17:03.676Z,3.53
2023-03-15T14:19:36.758Z,6.07
2023-03-15T14:22:15.508Z,2.22
2023-03-15T14:24:50.345Z,3.10
2023-03-15T14:27:32.352Z,2.53
2023-03-15T14:30:04.041Z,2.85
2023-03-15T14:32:38.044Z,2.72
2023-03-15T14:35:25.087Z,2.83
2023-03-15T14:38:15.087Z,3.47
2023-03-15T14:40:47.397Z,2.58
2023-03-15T14:43:18.927Z,2.28
2023-03-15T14:45:50.573Z,1.92
2023-03-15T14:48:28.241Z,4.13
2023-03-15T14:50:59.949Z,2.63
2023-03-15T14:53:35.975Z,3.58
2023-03-15T14:56:07.949Z,2.67
2023-03-15T14:58:40.305Z,1.73
2023-03-15T15:01:19.857Z,4.50
2023-03-15T15:03:55.131Z,2.75
2023-03-15T15:06:28.228Z,3.42
2023-03-15T15:09:00.399Z,1.48
2023-03-15T15:11:31.942Z,1.77
2023-03-15T15:14:03.673Z,2.13
2023-03-15T15:16:35.221Z,3.53
2023-03-15T15:19:06.777Z,2.47
2023-03-15T15:21:38.823Z,3.85
2023-03-15T15:24:16.760Z,2.05
2023-03-15T15:26:48.287Z,2.40
2023-03-15T15:29:19.747Z,2.67
2023-03-15T15:31:51.249Z,2.07
2023-03-15T15:34:22.758Z,2.80
2023-03-15T15:36:54.289Z,3.08
2023-03-15T15:39:27.101Z,2.28
2023-03-15T15:41:58.812Z,3.03
2023-03-15T15:44:30.259Z,2.40
2023-03-15T15:47:01.778Z,3.75
2023-03-15T15:49:33.223Z,1.17
2023-03-15T15:52:04.807Z,2.15
2023-03-15T15:54:36.260Z,2.72
2023-03-15T15:57:11.765Z,1.83
2023-03-15T15:59:43.267Z,3.00
2023-03-15T16:02:16.595Z,2.22
2023-03-15T16:04:49.399Z,1.70
2023-03-15T16:07:21.002Z,3.55
2023-03-15T16:09:56.600Z,1.60
2023-03-15T16:12:29.146Z,1.88
2023-03-15T16:15:01.218Z,1.97
2023-03-15T16:17:32.684Z,3.27
2023-03-15T16:20:04.748Z,3.08
2023-03-15T16:22:38.482Z,5.05
2023-03-15T16:25:26.249Z,4.07
2023-03-15T16:27:57.722Z,3.83
2023-03-15T16:30:31.202Z,3.53
2023-03-15T16:33:02.704Z,3.60
2023-03-15T16:35:35.738Z,2.70
2023-03-15T16:38:14.608Z,4.63
2023-03-15T16:40:46.168Z,3.20
2023-03-15T16:43:18.087Z,4.37
2023-03-15T16:45:49.569Z,3.22
2023-03-15T16:48:21.086Z,3.10
2023-03-15T16:50:52.541Z,3.10
2023-03-15T16:53:24.026Z,3.17
2023-03-15T16:55:55.538Z,2.95
2023-03-15T16:58:27.143Z,3.03
2023-03-15T17:00:58.681Z,3.00
2023-03-15T17:03:30.181Z,3.17
2023-03-15T17:06:01.793Z,3.23
2023-03-15T17:08:33.662Z,2.55
2023-03-15T17:11:05.363Z,3.90
2023-03-15T17:13:37.249Z,2.53
2023-03-15T17:16:12.849Z,2.20
2023-03-15T17:18:44.676Z,4.05
2023-03-15T17:21:19.504Z,5.18
2023-03-15T17:23:52.700Z,3.20
2023-03-15T17:26:24.313Z,4.50
2023-03-15T17:28:55.798Z,5.05
2023-03-15T17:31:29.468Z,3.25
2023-03-15T17:34:01.536Z,3.28
2023-03-15T17:36:36.138Z,3.55
2023-03-15T17:39:11.313Z,5.63
2023-03-15T17:41:47.515Z,3.75
2023-03-15T17:44:19.102Z,5.15
2023-03-15T17:46:50.707Z,4.03
2023-03-15T17:49:22.464Z,4.10
2023-03-15T17:51:53.974Z,3.95
2023-03-15T17:54:25.483Z,4.40
2023-03-15T17:56:59.971Z,5.30
2023-03-15T17:59:31.628Z,6.82
2023-03-15T18:02:03.316Z,5.70
2023-03-15T18:04:35.023Z,5.88
2023-03-15T18:07:06.682Z,3.20
2023-03-15T18:09:38.287Z,4.45
2023-03-15T18:12:10.811Z,4.15
2023-03-15T18:14:42.481Z,4.05
2023-03-15T18:17:14.148Z,7.22
2023-03-15T18:19:45.779Z,3.95
2023-03-15T18:22:17.609Z,3.28
2023-03-15T18:24:49.177Z,4.80
2023-03-15T18:27:20.832Z,5.32
2023-03-15T18:29:52.319Z,4.75
2023-03-15T18:32:23.938Z,5.18
2023-03-15T18:34:55.765Z,3.17
2023-03-15T18:37:27.271Z,3.40
2023-03-15T18:39:58.709Z,5.70
2023-03-15T18:42:30.168Z,4.65
2023-03-15T18:45:01.638Z,5.03
2023-03-15T18:47:33.140Z,4.53
2023-03-15T18:50:10.546Z,5.45
2023-03-15T18:52:43.321Z,4.15
2023-03-15T18:55:17.551Z,5.75
2023-03-15T18:57:53.086Z,5.20
2023-03-15T19:00:27.756Z,4.50
2023-03-15T19:03:00.738Z,4.07
2023-03-15T19:05:36.520Z,7.10
2023-03-15T19:08:07.980Z,5.60
2023-03-15T19:10:39.419Z,4.33
2023-03-15T19:13:10.891Z,4.50
2023-03-15T19:15:42.290Z,3.92
2023-03-15T19:18:13.772Z,4.22
2023-03-15T19:20:46.679Z,3.63
2023-03-15T19:23:18.920Z,5.68
2023-03-15T19:25:50.449Z,4.05
2023-03-15T19:28:21.962Z,4.22
2023-03-15T19:30:53.699Z,4.67
2023-03-15T19:33:25.209Z,4.00
2023-03-15T19:35:56.716Z,4.72
2023-03-15T19:38:28.789Z,5.07
2023-03-15T19:41:05.493Z,5.55
2023-03-15T19:43:37.035Z,5.07
2023-03-15T19:46:09.190Z,4.30
2023-03-15T19:48:40.932Z,4.50
2023-03-15T19:51:12.454Z,6.10
2023-03-15T19:53:43.903Z,5.15
2023-03-15T19:56:15.421Z,3.53
2023-03-15T19:58:46.892Z,4.68
2023-03-15T20:01:18.464Z,5.50
2023-03-15T20:03:49.954Z,4.30
2023-03-15T20:06:21.406Z,4.05
2023-03-15T20:08:53.039Z,4.35
2023-03-15T20:11:24.497Z,5.20
2023-03-15T20:13:56.025Z,3.42
2023-03-15T20:16:27.761Z,4.30
2023-03-15T20:18:59.235Z,5.70
2023-03-15T20:21:30.722Z,5.00
2023-03-15T20:24:02.204Z,5.15
2023-03-15T20:26:33.745Z,5.35
2023-03-15T20:29:05.243Z,6.18
2023-03-15T20:31:36.861Z,5.45
2023-03-15T20:34:08.404Z,4.20
2023-03-15T20:36:39.886Z,6.00
2023-03-15T20:39:11.348Z,4.35
2023-03-15T20:41:42.777Z,4.33
2023-03-15T20:44:14.248Z,4.63
2023-03-15T20:46:45.788Z,4.00
2023-03-15T20:49:17.333Z,5.93
2023-03-15T20:51:48.857Z,6.63
2023-03-15T20:54:20.323Z,5.50
2023-03-15T20:56:51.976Z,4.28
2023-03-15T20:59:23.639Z,7.57
2023-03-15T21:01:55.397Z,6.05
2023-03-15T21:04:27.096Z,5.28
2023-03-15T21:06:58.854Z,5.50
2023-03-15T21:09:32.285Z,4.23
2023-03-15T21:12:04.210Z,3.63
2023-03-15T21:14:35.929Z,4.25
2023-03-15T21:17:07.441Z,3.92
2023-03-15T21:19:39.277Z,6.32
2023-03-15T21:22:10.972Z,5.88
2023-03-15T21:24:54.694Z,5.82
2023-03-15T21:27:27.406Z,5.13
2023-03-15T21:29:59.093Z,6.22
2023-03-15T21:32:30.668Z,3.80
2023-03-15T21:35:02.456Z,6.05
2023-03-15T21:37:34.101Z,4.70
2023-03-15T21:40:06.286Z,3.58
2023-03-15T21:42:38.178Z,6.80
2023-03-15T21:45:10.658Z,5.07
2023-03-15T21:47:42.436Z,4.63
2023-03-15T21:50:14.291Z,6.57
2023-03-15T21:52:45.847Z,6.00
2023-03-15T21:55:17.426Z,4.47
2023-03-15T21:57:48.896Z,6.13
2023-03-15T22:00:20.543Z,4.28
2023-03-15T22:02:53.532Z,6.35
2023-03-15T22:05:26.048Z,5.32
2023-03-15T22:07:57.532Z,5.18
2023-03-15T22:10:28.971Z,6.65
2023-03-15T22:13:00.393Z,5.72
2023-03-15T22:15:31.850Z,5.25
2023-03-15T22:18:03.422Z,4.65
2023-03-15T22:20:34.853Z,6.25
2023-03-15T22:23:06.320Z,5.07
2023-03-15T22:25:38.593Z,6.47
2023-03-15T22:28:10.398Z,6.28
2023-03-15T22:30:42.273Z,5.43
2023-03-15T22:33:13.747Z,5.25
2023-03-15T22:35:45.559Z,4.55
2023-03-15T22:38:17.012Z,6.30
2023-03-15T22:40:48.619Z,5.43
2023-03-15T22:43:20.078Z,4.47
2023-03-15T22:45:51.558Z,5.87
2023-03-15T22:48:23.053Z,5.40
2023-03-15T22:51:02.595Z,5.07
2023-03-15T22:53:34.349Z,6.22
2023-03-15T22:56:05.933Z,6.10
2023-03-15T22:58:37.518Z,4.80
2023-03-15T23:01:09.330Z,6.20
2023-03-15T23:03:40.799Z,6.55
2023-03-15T23:06:12.293Z,5.03
2023-03-15T23:08:44.234Z,5.20
2023-03-15T23:11:15.701Z,6.00
2023-03-15T23:13:47.212Z,5.30
2023-03-15T23:16:18.940Z,5.15
2023-03-15T23:18:50.388Z,6.10
2023-03-15T23:21:21.808Z,4.60
2023-03-15T23:23:53.282Z,4.72
2023-03-15T23:26:24.758Z,5.50
2023-03-15T23:28:56.217Z,5.15
2023-03-15T23:31:27.691Z,5.57
2023-03-15T23:33:59.157Z,5.35
2023-03-15T23:36:30.723Z,6.00
2023-03-15T23:39:02.273Z,5.55
2023-03-15T23:41:33.868Z,5.72
2023-03-15T23:44:05.303Z,6.32
2023-03-15T23:46:36.826Z,5.68
2023-03-15T23:49:09.165Z,6.68
2023-03-15T23:51:40.610Z,5.20
2023-03-15T23:54:12.062Z,5.55
2023-03-15T23:56:43.521Z,5.80
2023-03-15T23:59:15.193Z,6.20
